sensor_id;sensor_type;location;lat;lon;timestamp;P1;durP1;ratioP1;P2;durP2;ratioP2
29238;SDS011;16267;48.194;11.546;2023-04-25T00:01:30;3.78;;;1.83;;
29238;SDS011;16267;48.194;11.546;2023-04-25T00:03:57;2.67;;;1.60;;
29238;SDS011;16267;48.194;11.546;2023-04-25T00:06:22;2.65;;;1.70;;
29238;SDS011;16267;48.194;11.546;2023-04-25T00:08:51;14.85;;;2.05;;
29238;SDS011;16267;48.194;11.546;2023-04-25T00:11:18;3.60;;;1.80;;
29238;SDS011;16267;48.194;11.546;2023-04-25T00:13:44;5.18;;;2.60;;
29238;SDS011;16267;48.194;11.546;2023-04-25T00:16:11;4.78;;;1.80;;
29238;SDS011;16267;48.194;11.546;2023-04-25T00:18:39;4.68;;;1.80;;
29238;SDS011;16267;48.194;11.546;2023-04-25T00:21:06;4.28;;;1.98;;
29238;SDS011;16267;48.194;11.546;2023-04-25T00:23:32;4.68;;;1.88;;
29238;SDS011;16267;48.194;11.546;2023-04-25T00:26:00;3.58;;;1.92;;
29238;SDS011;16267;48.194;11.546;2023-04-25T00:28:26;2.67;;;1.80;;
29238;SDS011;16267;48.194;11.546;2023-04-25T00:30:52;2.47;;;1.63;;
29238;SDS011;16267;48.194;11.546;2023-04-25T00:33:17;2.53;;;1.60;;
29238;SDS011;16267;48.194;11.546;2023-04-25T00:35:43;3.05;;;2.00;;
29238;SDS011;16267;48.194;11.546;2023-04-25T00:38:09;5.22;;;2.00;;
29238;SDS011;16267;48.194;11.546;2023-04-25T00:40:34;4.97;;;1.77;;
29238;SDS011;16267;48.194;11.546;2023-04-25T00:43:00;3.65;;;1.92;;
29238;SDS011;16267;48.194;11.546;2023-04-25T00:45:27;5.28;;;2.28;;
29238;SDS011;16267;48.194;11.546;2023-04-25T00:47:54;5.85;;;2.00;;
29238;SDS011;16267;48.194;11.546;2023-04-25T00:50:21;4.22;;;1.95;;
29238;SDS011;16267;48.194;11.546;2023-04-25T00:52:47;4.35;;;2.30;;
29238;SDS011;16267;48.194;11.546;2023-04-25T00:55:13;2.90;;;1.90;;
29238;SDS011;16267;48.194;11.546;2023-04-25T00:57:40;3.58;;;2.08;;
29238;SDS011;16267;48.194;11.546;2023-04-25T01:00:05;5.55;;;2.00;;
29238;SDS011;16267;48.194;11.546;2023-04-25T01:02:34;6.57;;;1.63;;
29238;SDS011;16267;48.194;11.546;2023-04-25T01:05:00;2.47;;;1.60;;
29238;SDS011;16267;48.194;11.546;2023-04-25T01:07:27;4.15;;;2.03;;
29238;SDS011;16267;48.194;11.546;2023-04-25T01:09:53;4.70;;;1.80;;
29238;SDS011;16267;48.194;11.546;2023-04-25T01:12:18;4.57;;;1.92;;
29238;SDS011;16267;48.194;11.546;2023-04-25T01:14:44;2.75;;;1.50;;
29238;SDS011;16267;48.194;11.546;2023-04-25T01:17:11;4.47;;;2.13;;
29238;SDS011;16267;48.194;11.546;2023-04-25T01:19:38;5.30;;;1.77;;
29238;SDS011;16267;48.194;11.546;2023-04-25T01:22:04;4.10;;;1.80;;
29238;SDS011;16267;48.194;11.546;2023-04-25T01:24:33;3.40;;;2.05;;
29238;SDS011;16267;48.194;11.546;2023-04-25T01:26:59;3.03;;;2.00;;
29238;SDS011;16267;48.194;11.546;2023-04-25T01:29:27;9.43;;;2.28;;
29238;SDS011;16267;48.194;11.546;2023-04-25T01:31:54;2.70;;;1.80;;
29238;SDS011;16267;48.194;11.546;2023-04-25T01:34:20;4.85;;;2.22;;
29238;SDS011;16267;48.194;11.546;2023-04-25T01:36:49;4.32;;;1.85;;
29238;SDS011;16267;48.194;11.546;2023-04-25T01:39:16;1.83;;;1.58;;
29238;SDS011;16267;48.194;11.546;2023-04-25T01:41:43;4.25;;;2.20;;
29238;SDS011;16267;48.194;11.546;2023-04-25T01:44:10;3.80;;;2.08;;
29238;SDS011;16267;48.194;11.546;2023-04-25T01:46:36;3.88;;;1.80;;
29238;SDS011;16267;48.194;11.546;2023-04-25T01:49:02;2.70;;;1.88;;
29238;SDS011;16267;48.194;11.546;2023-04-25T01:51:28;3.50;;;2.03;;
29238;SDS011;16267;48.194;11.546;2023-04-25T01:53:55;3.28;;;2.17;;
29238;SDS011;16267;48.194;11.546;2023-04-25T01:56:21;6.25;;;2.00;;
29238;SDS011;16267;48.194;11.546;2023-04-25T01:58:47;3.25;;;1.92;;
29238;SDS011;16267;48.194;11.546;2023-04-25T02:01:14;4.63;;;2.60;;
29238;SDS011;16267;48.194;11.546;2023-04-25T02:03:40;2.65;;;1.80;;
29238;SDS011;16267;48.194;11.546;2023-04-25T02:06:05;6.65;;;2.42;;
29238;SDS011;16267;48.194;11.546;2023-04-25T02:08:31;4.22;;;1.98;;
29238;SDS011;16267;48.194;11.546;2023-04-25T02:13:25;4.68;;;1.88;;
29238;SDS011;16267;48.194;11.546;2023-04-25T02:15:50;3.88;;;1.73;;
29238;SDS011;16267;48.194;11.546;2023-04-25T02:18:16;3.40;;;2.10;;
29238;SDS011;16267;48.194;11.546;2023-04-25T02:20:42;3.70;;;2.03;;
29238;SDS011;16267;48.194;11.546;2023-04-25T02:23:09;3.35;;;2.08;;
29238;SDS011;16267;48.194;11.546;2023-04-25T02:25:34;3.35;;;2.42;;
29238;SDS011;16267;48.194;11.546;2023-04-25T02:28:00;9.48;;;2.30;;
29238;SDS011;16267;48.194;11.546;2023-04-25T02:30:26;3.33;;;2.33;;
29238;SDS011;16267;48.194;11.546;2023-04-25T02:32:52;3.83;;;2.20;;
29238;SDS011;16267;48.194;11.546;2023-04-25T02:35:18;5.15;;;1.92;;
29238;SDS011;16267;48.194;11.546;2023-04-25T02:37:43;4.13;;;2.10;;
29238;SDS011;16267;48.194;11.546;2023-04-25T02:40:09;3.38;;;2.20;;
29238;SDS011;16267;48.194;11.546;2023-04-25T02:42:35;4.45;;;2.13;;
29238;SDS011;16267;48.194;11.546;2023-04-25T02:45:02;4.57;;;2.00;;
29238;SDS011;16267;48.194;11.546;2023-04-25T02:47:28;2.97;;;2.05;;
29238;SDS011;16267;48.194;11.546;2023-04-25T02:49:54;4.13;;;2.30;;
29238;SDS011;16267;48.194;11.546;2023-04-25T02:52:20;5.00;;;1.90;;
29238;SDS011;16267;48.194;11.546;2023-04-25T02:54:46;7.10;;;2.30;;
29238;SDS011;16267;48.194;11.546;2023-04-25T02:57:12;3.17;;;2.10;;
29238;SDS011;16267;48.194;11.546;2023-04-25T02:59:37;5.03;;;2.17;;
29238;SDS011;16267;48.194;11.546;2023-04-25T03:02:03;4.82;;;2.30;;
29238;SDS011;16267;48.194;11.546;2023-04-25T03:04:29;4.38;;;2.40;;
29238;SDS011;16267;48.194;11.546;2023-04-25T03:06:55;4.28;;;2.05;;
29238;SDS011;16267;48.194;11.546;2023-04-25T03:09:21;6.38;;;2.15;;
29238;SDS011;16267;48.194;11.546;2023-04-25T03:11:46;3.72;;;1.90;;
29238;SDS011;16267;48.194;11.546;2023-04-25T03:14:12;6.30;;;2.47;;
29238;SDS011;16267;48.194;11.546;2023-04-25T03:16:38;3.72;;;2.20;;
29238;SDS011;16267;48.194;11.546;2023-04-25T03:19:04;6.53;;;2.45;;
29238;SDS011;16267;48.194;11.546;2023-04-25T03:21:30;5.70;;;2.35;;
29238;SDS011;16267;48.194;11.546;2023-04-25T03:23:58;6.68;;;2.33;;
29238;SDS011;16267;48.194;11.546;2023-04-25T03:26:27;6.22;;;2.40;;
29238;SDS011;16267;48.194;11.546;2023-04-25T03:28:52;5.03;;;2.25;;
29238;SDS011;16267;48.194;11.546;2023-04-25T03:31:18;5.85;;;2.50;;
29238;SDS011;16267;48.194;11.546;2023-04-25T03:33:44;4.63;;;2.25;;
29238;SDS011;16267;48.194;11.546;2023-04-25T03:36:10;4.47;;;2.20;;
29238;SDS011;16267;48.194;11.546;2023-04-25T03:38:36;3.17;;;2.03;;
29238;SDS011;16267;48.194;11.546;2023-04-25T03:41:01;2.70;;;1.73;;
29238;SDS011;16267;48.194;11.546;2023-04-25T03:43:27;3.72;;;2.17;;
29238;SDS011;16267;48.194;11.546;2023-04-25T03:45:53;3.53;;;1.95;;
29238;SDS011;16267;48.194;11.546;2023-04-25T03:48:19;4.10;;;2.05;;
29238;SDS011;16267;48.194;11.546;2023-04-25T03:50:49;5.28;;;1.95;;
29238;SDS011;16267;48.194;11.546;2023-04-25T03:53:15;4.00;;;1.98;;
29238;SDS011;16267;48.194;11.546;2023-04-25T03:55:41;4.10;;;1.80;;
29238;SDS011;16267;48.194;11.546;2023-04-25T03:58:07;7.93;;;1.92;;
29238;SDS011;16267;48.194;11.546;2023-04-25T04:00:33;4.47;;;1.98;;
29238;SDS011;16267;48.194;11.546;2023-04-25T04:03:00;4.80;;;1.80;;
29238;SDS011;16267;48.194;11.546;2023-04-25T04:05:26;5.43;;;1.70;;
29238;SDS011;16267;48.194;11.546;2023-04-25T04:07:52;2.97;;;1.52;;
29238;SDS011;16267;48.194;11.546;2023-04-25T04:10:18;4.95;;;1.80;;
29238;SDS011;16267;48.194;11.546;2023-04-25T04:12:44;5.38;;;1.65;;
29238;SDS011;16267;48.194;11.546;2023-04-25T04:15:10;2.80;;;1.70;;
29238;SDS011;16267;48.194;11.546;2023-04-25T04:17:36;6.03;;;2.20;;
29238;SDS011;16267;48.194;11.546;2023-04-25T04:20:03;4.20;;;1.52;;
29238;SDS011;16267;48.194;11.546;2023-04-25T04:22:31;3.30;;;1.60;;
29238;SDS011;16267;48.194;11.546;2023-04-25T04:24:56;6.15;;;1.48;;
29238;SDS011;16267;48.194;11.546;2023-04-25T04:27:22;4.05;;;1.67;;
29238;SDS011;16267;48.194;11.546;2023-04-25T04:29:48;3.90;;;1.50;;
29238;SDS011;16267;48.194;11.546;2023-04-25T04:32:17;5.55;;;1.88;;
29238;SDS011;16267;48.194;11.546;2023-04-25T04:34:42;2.13;;;1.30;;
29238;SDS011;16267;48.194;11.546;2023-04-25T04:37:11;6.70;;;1.58;;
29238;SDS011;16267;48.194;11.546;2023-04-25T04:39:38;1.80;;;1.25;;
29238;SDS011;16267;48.194;11.546;2023-04-25T04:42:04;3.28;;;1.70;;
29238;SDS011;16267;48.194;11.546;2023-04-25T04:44:30;7.00;;;1.80;;
29238;SDS011;16267;48.194;11.546;2023-04-25T04:46:59;3.22;;;1.40;;
29238;SDS011;16267;48.194;11.546;2023-04-25T04:49:25;3.85;;;1.40;;
29238;SDS011;16267;48.194;11.546;2023-04-25T04:51:51;2.88;;;1.58;;
29238;SDS011;16267;48.194;11.546;2023-04-25T04:54:17;5.57;;;1.55;;
29238;SDS011;16267;48.194;11.546;2023-04-25T04:56:43;4.70;;;1.60;;
29238;SDS011;16267;48.194;11.546;2023-04-25T04:59:08;6.30;;;2.08;;
29238;SDS011;16267;48.194;11.546;2023-04-25T05:01:34;4.22;;;2.05;;
29238;SDS011;16267;48.194;11.546;2023-04-25T05:04:02;5.68;;;1.90;;
29238;SDS011;16267;48.194;11.546;2023-04-25T05:06:29;5.15;;;1.67;;
29238;SDS011;16267;48.194;11.546;2023-04-25T05:08:56;7.45;;;1.80;;
29238;SDS011;16267;48.194;11.546;2023-04-25T05:11:23;4.80;;;1.90;;
29238;SDS011;16267;48.194;11.546;2023-04-25T05:13:51;3.95;;;1.88;;
29238;SDS011;16267;48.194;11.546;2023-04-25T05:16:17;4.35;;;2.00;;
29238;SDS011;16267;48.194;11.546;2023-04-25T05:18:44;3.20;;;1.67;;
29238;SDS011;16267;48.194;11.546;2023-04-25T05:21:09;7.10;;;2.13;;
29238;SDS011;16267;48.194;11.546;2023-04-25T05:23:35;4.55;;;1.85;;
29238;SDS011;16267;48.194;11.546;2023-04-25T05:26:01;3.33;;;2.00;;
29238;SDS011;16267;48.194;11.546;2023-04-25T05:28:27;5.47;;;2.38;;
29238;SDS011;16267;48.194;11.546;2023-04-25T05:30:52;7.82;;;2.35;;
29238;SDS011;16267;48.194;11.546;2023-04-25T05:33:18;5.32;;;2.45;;
29238;SDS011;16267;48.194;11.546;2023-04-25T05:35:45;8.32;;;2.38;;
29238;SDS011;16267;48.194;11.546;2023-04-25T05:38:11;6.57;;;2.35;;
29238;SDS011;16267;48.194;11.546;2023-04-25T05:40:37;5.05;;;2.13;;
29238;SDS011;16267;48.194;11.546;2023-04-25T05:43:03;3.63;;;2.22;;
29238;SDS011;16267;48.194;11.546;2023-04-25T05:45:29;4.82;;;2.35;;
29238;SDS011;16267;48.194;11.546;2023-04-25T05:47:54;6.05;;;2.92;;
29238;SDS011;16267;48.194;11.546;2023-04-25T05:50:20;8.38;;;2.90;;
29238;SDS011;16267;48.194;11.546;2023-04-25T05:52:46;5.63;;;2.53;;
29238;SDS011;16267;48.194;11.546;2023-04-25T05:55:12;2.90;;;2.03;;
29238;SDS011;16267;48.194;11.546;2023-04-25T05:57:38;5.40;;;2.67;;
29238;SDS011;16267;48.194;11.546;2023-04-25T06:00:06;10.13;;;2.80;;
29238;SDS011;16267;48.194;11.546;2023-04-25T06:02:34;7.45;;;2.65;;
29238;SDS011;16267;48.194;11.546;2023-04-25T06:05:03;5.30;;;3.10;;
29238;SDS011;16267;48.194;11.546;2023-04-25T06:07:30;6.68;;;2.85;;
29238;SDS011;16267;48.194;11.546;2023-04-25T06:09:56;5.47;;;2.75;;
29238;SDS011;16267;48.194;11.546;2023-04-25T06:12:21;9.98;;;2.70;;
29238;SDS011;16267;48.194;11.546;2023-04-25T06:14:50;6.10;;;2.78;;
29238;SDS011;16267;48.194;11.546;2023-04-25T06:17:16;6.22;;;2.53;;
29238;SDS011;16267;48.194;11.546;2023-04-25T06:19:42;5.70;;;2.40;;
29238;SDS011;16267;48.194;11.546;2023-04-25T06:22:08;5.38;;;2.47;;
29238;SDS011;16267;48.194;11.546;2023-04-25T06:24:34;3.33;;;1.92;;
29238;SDS011;16267;48.194;11.546;2023-04-25T06:27:00;4.22;;;1.73;;
29238;SDS011;16267;48.194;11.546;2023-04-25T06:29:26;3.85;;;1.80;;
29238;SDS011;16267;48.194;11.546;2023-04-25T06:31:53;5.13;;;2.40;;
29238;SDS011;16267;48.194;11.546;2023-04-25T06:34:19;3.60;;;1.77;;
29238;SDS011;16267;48.194;11.546;2023-04-25T06:36:45;4.55;;;1.90;;
29238;SDS011;16267;48.194;11.546;2023-04-25T06:39:13;4.80;;;2.13;;
29238;SDS011;16267;48.194;11.546;2023-04-25T06:41:39;4.43;;;2.17;;
29238;SDS011;16267;48.194;11.546;2023-04-25T06:44:04;6.05;;;2.10;;
29238;SDS011;16267;48.194;11.546;2023-04-25T06:46:31;6.03;;;2.00;;
29238;SDS011;16267;48.194;11.546;2023-04-25T06:48:56;4.85;;;2.30;;
29238;SDS011;16267;48.194;11.546;2023-04-25T06:51:22;4.95;;;2.28;;
29238;SDS011;16267;48.194;11.546;2023-04-25T06:53:51;3.28;;;2.17;;
29238;SDS011;16267;48.194;11.546;2023-04-25T06:56:17;5.47;;;2.20;;
29238;SDS011;16267;48.194;11.546;2023-04-25T06:58:42;6.70;;;2.25;;
29238;SDS011;16267;48.194;11.546;2023-04-25T07:01:08;8.63;;;2.03;;
29238;SDS011;16267;48.194;11.546;2023-04-25T07:03:34;7.22;;;2.30;;
29238;SDS011;16267;48.194;11.546;2023-04-25T07:06:00;5.55;;;2.22;;
29238;SDS011;16267;48.194;11.546;2023-04-25T07:08:29;4.18;;;2.40;;
29238;SDS011;16267;48.194;11.546;2023-04-25T07:10:55;6.22;;;2.28;;
29238;SDS011;16267;48.194;11.546;2023-04-25T07:13:20;4.15;;;2.50;;
29238;SDS011;16267;48.194;11.546;2023-04-25T07:15:46;6.40;;;2.30;;
29238;SDS011;16267;48.194;11.546;2023-04-25T07:20:44;4.13;;;2.45;;
29238;SDS011;16267;48.194;11.546;2023-04-25T07:23:10;5.03;;;2.15;;
29238;SDS011;16267;48.194;11.546;2023-04-25T07:25:37;4.30;;;2.13;;
29238;SDS011;16267;48.194;11.546;2023-04-25T07:28:02;7.18;;;2.25;;
29238;SDS011;16267;48.194;11.546;2023-04-25T07:30:29;4.63;;;2.10;;
29238;SDS011;16267;48.194;11.546;2023-04-25T07:32:55;3.45;;;1.92;;
29238;SDS011;16267;48.194;11.546;2023-04-25T07:35:21;4.68;;;1.77;;
29238;SDS011;16267;48.194;11.546;2023-04-25T07:37:47;5.65;;;2.22;;
29238;SDS011;16267;48.194;11.546;2023-04-25T07:40:13;4.97;;;2.17;;
29238;SDS011;16267;48.194;11.546;2023-04-25T07:42:42;8.02;;;2.00;;
29238;SDS011;16267;48.194;11.546;2023-04-25T07:45:08;6.20;;;2.35;;
29238;SDS011;16267;48.194;11.546;2023-04-25T07:47:34;4.65;;;2.25;;
29238;SDS011;16267;48.194;11.546;2023-04-25T07:50:01;4.80;;;2.35;;
29238;SDS011;16267;48.194;11.546;2023-04-25T07:52:28;3.58;;;1.98;;
29238;SDS011;16267;48.194;11.546;2023-04-25T07:54:58;4.55;;;2.08;;
29238;SDS011;16267;48.194;11.546;2023-04-25T07:57:24;3.97;;;1.88;;
29238;SDS011;16267;48.194;11.546;2023-04-25T07:59:50;5.10;;;2.10;;
29238;SDS011;16267;48.194;11.546;2023-04-25T08:04:46;4.30;;;2.00;;
29238;SDS011;16267;48.194;11.546;2023-04-25T08:07:14;4.68;;;1.90;;
29238;SDS011;16267;48.194;11.546;2023-04-25T08:09:40;5.40;;;1.88;;
29238;SDS011;16267;48.194;11.546;2023-04-25T08:12:06;5.65;;;1.92;;
29238;SDS011;16267;48.194;11.546;2023-04-25T08:14:31;6.47;;;1.98;;
29238;SDS011;16267;48.194;11.546;2023-04-25T08:17:02;9.95;;;2.20;;
29238;SDS011;16267;48.194;11.546;2023-04-25T08:19:29;7.63;;;2.40;;
29238;SDS011;16267;48.194;11.546;2023-04-25T08:21:55;3.58;;;2.30;;
29238;SDS011;16267;48.194;11.546;2023-04-25T08:24:22;4.80;;;2.10;;
29238;SDS011;16267;48.194;11.546;2023-04-25T08:26:48;7.88;;;1.85;;
29238;SDS011;16267;48.194;11.546;2023-04-25T08:29:14;4.40;;;2.20;;
29238;SDS011;16267;48.194;11.546;2023-04-25T08:31:40;4.63;;;1.85;;
29238;SDS011;16267;48.194;11.546;2023-04-25T08:34:06;3.97;;;1.40;;
29238;SDS011;16267;48.194;11.546;2023-04-25T08:36:32;2.38;;;1.67;;
29238;SDS011;16267;48.194;11.546;2023-04-25T08:38:57;3.08;;;1.65;;
29238;SDS011;16267;48.194;11.546;2023-04-25T08:41:23;5.93;;;1.38;;
29238;SDS011;16267;48.194;11.546;2023-04-25T08:43:50;5.22;;;1.45;;
29238;SDS011;16267;48.194;11.546;2023-04-25T08:46:18;6.10;;;1.80;;
29238;SDS011;16267;48.194;11.546;2023-04-25T08:48:45;3.33;;;1.40;;
29238;SDS011;16267;48.194;11.546;2023-04-25T08:51:15;4.32;;;1.80;;
29238;SDS011;16267;48.194;11.546;2023-04-25T08:53:49;3.05;;;1.30;;
29238;SDS011;16267;48.194;11.546;2023-04-25T08:56:17;4.20;;;1.40;;
29238;SDS011;16267;48.194;11.546;2023-04-25T08:58:45;3.38;;;1.52;;
29238;SDS011;16267;48.194;11.546;2023-04-25T09:01:15;3.28;;;1.38;;
29238;SDS011;16267;48.194;11.546;2023-04-25T09:03:42;5.97;;;1.58;;
29238;SDS011;16267;48.194;11.546;2023-04-25T09:06:10;5.40;;;1.98;;
29238;SDS011;16267;48.194;11.546;2023-04-25T09:08:36;3.55;;;1.70;;
29238;SDS011;16267;48.194;11.546;2023-04-25T09:11:05;2.70;;;1.50;;
29238;SDS011;16267;48.194;11.546;2023-04-25T09:13:31;5.38;;;1.75;;
29238;SDS011;16267;48.194;11.546;2023-04-25T09:15:57;4.78;;;1.75;;
29238;SDS011;16267;48.194;11.546;2023-04-25T09:18:33;3.92;;;1.60;;
29238;SDS011;16267;48.194;11.546;2023-04-25T09:21:07;4.70;;;1.70;;
29238;SDS011;16267;48.194;11.546;2023-04-25T09:23:43;3.72;;;1.65;;
29238;SDS011;16267;48.194;11.546;2023-04-25T09:26:18;3.97;;;1.60;;
29238;SDS011;16267;48.194;11.546;2023-04-25T09:28:45;3.22;;;1.38;;
29238;SDS011;16267;48.194;11.546;2023-04-25T09:31:20;3.50;;;1.45;;
29238;SDS011;16267;48.194;11.546;2023-04-25T09:33:49;4.65;;;2.20;;
29238;SDS011;16267;48.194;11.546;2023-04-25T09:36:15;2.70;;;1.40;;
29238;SDS011;16267;48.194;11.546;2023-04-25T09:38:41;4.05;;;1.33;;
29238;SDS011;16267;48.194;11.546;2023-04-25T09:41:11;4.68;;;1.42;;
29238;SDS011;16267;48.194;11.546;2023-04-25T09:43:38;2.88;;;1.20;;
29238;SDS011;16267;48.194;11.546;2023-04-25T09:46:08;3.58;;;1.40;;
29238;SDS011;16267;48.194;11.546;2023-04-25T09:48:36;5.20;;;2.00;;
29238;SDS011;16267;48.194;11.546;2023-04-25T09:51:14;2.47;;;1.30;;
29238;SDS011;16267;48.194;11.546;2023-04-25T09:53:41;2.72;;;1.50;;
29238;SDS011;16267;48.194;11.546;2023-04-25T09:56:12;5.00;;;1.95;;
29238;SDS011;16267;48.194;11.546;2023-04-25T09:58:41;2.42;;;1.30;;
29238;SDS011;16267;48.194;11.546;2023-04-25T10:01:08;3.05;;;1.30;;
29238;SDS011;16267;48.194;11.546;2023-04-25T10:03:36;3.08;;;1.45;;
29238;SDS011;16267;48.194;11.546;2023-04-25T10:06:07;3.45;;;1.77;;
29238;SDS011;16267;48.194;11.546;2023-04-25T10:08:43;6.72;;;1.38;;
29238;SDS011;16267;48.194;11.546;2023-04-25T10:11:09;2.58;;;1.38;;
29238;SDS011;16267;48.194;11.546;2023-04-25T10:13:36;2.75;;;1.38;;
29238;SDS011;16267;48.194;11.546;2023-04-25T10:16:03;3.28;;;1.58;;
29238;SDS011;16267;48.194;11.546;2023-04-25T10:18:30;6.53;;;1.40;;
29238;SDS011;16267;48.194;11.546;2023-04-25T10:21:00;3.03;;;1.25;;
29238;SDS011;16267;48.194;11.546;2023-04-25T10:23:29;1.90;;;0.98;;
29238;SDS011;16267;48.194;11.546;2023-04-25T10:25:56;2.95;;;1.30;;
29238;SDS011;16267;48.194;11.546;2023-04-25T10:28:23;2.67;;;1.40;;
29238;SDS011;16267;48.194;11.546;2023-04-25T10:33:47;2.80;;;1.33;;
29238;SDS011;16267;48.194;11.546;2023-04-25T10:36:18;4.25;;;1.50;;
29238;SDS011;16267;48.194;11.546;2023-04-25T10:38:47;4.70;;;1.30;;
29238;SDS011;16267;48.194;11.546;2023-04-25T10:41:16;3.90;;;1.70;;
29238;SDS011;16267;48.194;11.546;2023-04-25T10:43:45;4.45;;;1.77;;
29238;SDS011;16267;48.194;11.546;2023-04-25T10:46:16;2.03;;;1.10;;
29238;SDS011;16267;48.194;11.546;2023-04-25T10:51:20;5.28;;;1.08;;
29238;SDS011;16267;48.194;11.546;2023-04-25T10:56:29;5.75;;;1.40;;
29238;SDS011;16267;48.194;11.546;2023-04-25T11:01:35;5.43;;;1.50;;
29238;SDS011;16267;48.194;11.546;2023-04-25T11:04:32;3.65;;;1.42;;
29238;SDS011;16267;48.194;11.546;2023-04-25T11:09:56;3.50;;;1.50;;
29238;SDS011;16267;48.194;11.546;2023-04-25T11:12:24;1.70;;;1.15;;
29238;SDS011;16267;48.194;11.546;2023-04-25T11:14:50;3.50;;;1.45;;
29238;SDS011;16267;48.194;11.546;2023-04-25T11:17:16;5.90;;;1.60;;
29238;SDS011;16267;48.194;11.546;2023-04-25T11:19:41;4.05;;;1.60;;
29238;SDS011;16267;48.194;11.546;2023-04-25T11:22:07;4.07;;;1.70;;
29238;SDS011;16267;48.194;11.546;2023-04-25T11:24:35;6.20;;;2.72;;
29238;SDS011;16267;48.194;11.546;2023-04-25T11:27:02;2.58;;;1.33;;
29238;SDS011;16267;48.194;11.546;2023-04-25T11:29:29;4.70;;;1.83;;
29238;SDS011;16267;48.194;11.546;2023-04-25T11:31:56;2.83;;;1.23;;
29238;SDS011;16267;48.194;11.546;2023-04-25T11:34:23;5.60;;;1.67;;
29238;SDS011;16267;48.194;11.546;2023-04-25T11:36:56;2.17;;;1.42;;
29238;SDS011;16267;48.194;11.546;2023-04-25T11:39:23;2.05;;;1.20;;
29238;SDS011;16267;48.194;11.546;2023-04-25T11:41:51;2.15;;;1.02;;
29238;SDS011;16267;48.194;11.546;2023-04-25T11:44:18;3.03;;;1.67;;
29238;SDS011;16267;48.194;11.546;2023-04-25T11:46:45;2.55;;;1.20;;
29238;SDS011;16267;48.194;11.546;2023-04-25T11:49:12;2.58;;;1.40;;
29238;SDS011;16267;48.194;11.546;2023-04-25T11:51:42;4.22;;;1.40;;
29238;SDS011;16267;48.194;11.546;2023-04-25T11:54:13;6.15;;;1.95;;
29238;SDS011;16267;48.194;11.546;2023-04-25T11:56:41;2.38;;;1.50;;
29238;SDS011;16267;48.194;11.546;2023-04-25T11:59:10;4.07;;;1.10;;
29238;SDS011;16267;48.194;11.546;2023-04-25T12:01:38;3.00;;;1.00;;
29238;SDS011;16267;48.194;11.546;2023-04-25T12:04:13;4.97;;;1.40;;
29238;SDS011;16267;48.194;11.546;2023-04-25T12:06:42;2.22;;;1.08;;
29238;SDS011;16267;48.194;11.546;2023-04-25T12:09:12;7.85;;;1.13;;
29238;SDS011;16267;48.194;11.546;2023-04-25T12:11:47;4.50;;;1.30;;
29238;SDS011;16267;48.194;11.546;2023-04-25T12:14:22;2.45;;;1.40;;
29238;SDS011;16267;48.194;11.546;2023-04-25T12:16:58;2.00;;;1.27;;
29238;SDS011;16267;48.194;11.546;2023-04-25T12:19:25;2.15;;;1.20;;
29238;SDS011;16267;48.194;11.546;2023-04-25T12:21:57;2.75;;;0.80;;
29238;SDS011;16267;48.194;11.546;2023-04-25T12:24:24;3.20;;;1.10;;
29238;SDS011;16267;48.194;11.546;2023-04-25T12:26:53;2.90;;;1.20;;
29238;SDS011;16267;48.194;11.546;2023-04-25T12:29:30;1.73;;;1.05;;
29238;SDS011;16267;48.194;11.546;2023-04-25T12:31:57;1.50;;;0.90;;
29238;SDS011;16267;48.194;11.546;2023-04-25T12:34:24;1.67;;;1.17;;
29238;SDS011;16267;48.194;11.546;2023-04-25T12:36:51;1.70;;;1.33;;
29238;SDS011;16267;48.194;11.546;2023-04-25T12:39:18;5.40;;;1.30;;
29238;SDS011;16267;48.194;11.546;2023-04-25T12:41:49;1.85;;;1.20;;
29238;SDS011;16267;48.194;11.546;2023-04-25T12:44:17;2.65;;;1.20;;
29238;SDS011;16267;48.194;11.546;2023-04-25T12:46:43;2.53;;;1.38;;
29238;SDS011;16267;48.194;11.546;2023-04-25T12:49:08;2.83;;;1.40;;
29238;SDS011;16267;48.194;11.546;2023-04-25T12:51:35;2.20;;;1.63;;
29238;SDS011;16267;48.194;11.546;2023-04-25T12:54:01;3.30;;;1.30;;
29238;SDS011;16267;48.194;11.546;2023-04-25T12:56:29;3.30;;;1.15;;
29238;SDS011;16267;48.194;11.546;2023-04-25T12:58:56;1.40;;;1.10;;
29238;SDS011;16267;48.194;11.546;2023-04-25T13:01:23;1.88;;;1.05;;
29238;SDS011;16267;48.194;11.546;2023-04-25T13:03:49;1.92;;;1.30;;
29238;SDS011;16267;48.194;11.546;2023-04-25T13:06:16;4.65;;;1.40;;
29238;SDS011;16267;48.194;11.546;2023-04-25T13:08:43;1.98;;;1.10;;
29238;SDS011;16267;48.194;11.546;2023-04-25T13:11:09;3.53;;;1.13;;
29238;SDS011;16267;48.194;11.546;2023-04-25T13:13:35;1.38;;;1.05;;
29238;SDS011;16267;48.194;11.546;2023-04-25T13:16:01;1.35;;;0.90;;
29238;SDS011;16267;48.194;11.546;2023-04-25T13:18:29;1.08;;;0.93;;
29238;SDS011;16267;48.194;11.546;2023-04-25T13:20:56;3.58;;;1.10;;
29238;SDS011;16267;48.194;11.546;2023-04-25T13:23:23;1.70;;;1.10;;
29238;SDS011;16267;48.194;11.546;2023-04-25T13:25:50;1.83;;;1.08;;
29238;SDS011;16267;48.194;11.546;2023-04-25T13:28:17;1.30;;;0.90;;
29238;SDS011;16267;48.194;11.546;2023-04-25T13:30:43;1.25;;;1.02;;
29238;SDS011;16267;48.194;11.546;2023-04-25T13:33:09;2.70;;;1.00;;
29238;SDS011;16267;48.194;11.546;2023-04-25T13:35:35;1.50;;;1.00;;
29238;SDS011;16267;48.194;11.546;2023-04-25T13:38:03;1.25;;;0.80;;
29238;SDS011;16267;48.194;11.546;2023-04-25T13:40:29;0.85;;;0.73;;
29238;SDS011;16267;48.194;11.546;2023-04-25T13:42:55;2.53;;;0.70;;
29238;SDS011;16267;48.194;11.546;2023-04-25T13:45:21;1.40;;;0.70;;
29238;SDS011;16267;48.194;11.546;2023-04-25T13:47:47;2.97;;;0.70;;
29238;SDS011;16267;48.194;11.546;2023-04-25T13:50:13;0.60;;;0.50;;
29238;SDS011;16267;48.194;11.546;2023-04-25T13:52:40;2.88;;;0.90;;
29238;SDS011;16267;48.194;11.546;2023-04-25T13:55:07;3.85;;;1.08;;
29238;SDS011;16267;48.194;11.546;2023-04-25T13:57:35;7.00;;;1.30;;
29238;SDS011;16267;48.194;11.546;2023-04-25T14:00:02;4.68;;;1.30;;
29238;SDS011;16267;48.194;11.546;2023-04-25T14:02:33;1.65;;;1.10;;
29238;SDS011;16267;48.194;11.546;2023-04-25T14:05:02;3.80;;;1.48;;
29238;SDS011;16267;48.194;11.546;2023-04-25T14:07:29;3.75;;;2.63;;
29238;SDS011;16267;48.194;11.546;2023-04-25T14:09:55;2.90;;;2.15;;
29238;SDS011;16267;48.194;11.546;2023-04-25T14:12:24;2.33;;;1.77;;
29238;SDS011;16267;48.194;11.546;2023-04-25T14:14:50;3.10;;;1.75;;
29238;SDS011;16267;48.194;11.546;2023-04-25T14:17:16;7.00;;;1.75;;
29238;SDS011;16267;48.194;11.546;2023-04-25T14:19:41;2.90;;;2.00;;
29238;SDS011;16267;48.194;11.546;2023-04-25T14:22:10;3.67;;;1.80;;
29238;SDS011;16267;48.194;11.546;2023-04-25T14:24:36;4.30;;;2.35;;
29238;SDS011;16267;48.194;11.546;2023-04-25T14:27:03;3.03;;;1.98;;
29238;SDS011;16267;48.194;11.546;2023-04-25T14:29:29;2.72;;;2.20;;
29238;SDS011;16267;48.194;11.546;2023-04-25T14:31:55;3.67;;;2.00;;
29238;SDS011;16267;48.194;11.546;2023-04-25T14:34:22;2.88;;;1.55;;
29238;SDS011;16267;48.194;11.546;2023-04-25T14:36:49;2.55;;;1.70;;
29238;SDS011;16267;48.194;11.546;2023-04-25T14:39:16;4.03;;;1.48;;
29238;SDS011;16267;48.194;11.546;2023-04-25T14:41:42;2.08;;;1.40;;
29238;SDS011;16267;48.194;11.546;2023-04-25T14:44:08;1.67;;;1.27;;
29238;SDS011;16267;48.194;11.546;2023-04-25T14:46:34;4.28;;;2.00;;
29238;SDS011;16267;48.194;11.546;2023-04-25T14:49:00;2.33;;;1.30;;
29238;SDS011;16267;48.194;11.546;2023-04-25T14:51:26;1.55;;;0.90;;
29238;SDS011;16267;48.194;11.546;2023-04-25T14:53:52;2.58;;;1.10;;